Edith Kirk — 2DST9 — position and weather

sailwx.info

Track history (hours):
 
Tides and Currents Weather Stations Pressure Air Temp Water Temp Dewpoint Dewpoint Depression Visibility Wind Speed Wind Dir Waves Ship Positions

Edith Kirk

Last reported at 2016-Jul-01 14:28 UTC. Time now 2016-Jul-01 15:24 UTC.
Position N 51°25' E 003°44'.

Length 183 m; draft 10.3 m.

Type: Ship. MMSI: 235081745.

Date/timePositionNaut miles runAvg speedWind from/ knotsBaromVisibWave heightAir tempDewpointWater temp
2016-Jul-01 14:28N 51°25' E 003°44'0 0.0
2016-Jul-01 13:28N 51°25' E 003°44'0 0.0
2016-Jul-01 12:28N 51°25' E 003°44'0 0.0
2016-Jul-01 11:31N 51°25' E 003°44'0 0.0
2016-Jul-01 10:31N 51°25' E 003°44'0 0.0
2016-Jul-01 09:28N 51°25' E 003°44'0 0.0
2016-Jul-01 08:31N 51°25' E 003°44'0 0.0
2016-Jul-01 07:31N 51°25' E 003°44'0 0.0
2016-Jul-01 06:28N 51°25' E 003°44'0 0.0
2016-Jul-01 05:28N 51°25' E 003°44'0 0.0
2016-Jul-01 04:28N 51°25' E 003°44'0 0.0
2016-Jul-01 03:28N 51°25' E 003°44'0 0.0
2016-Jul-01 02:31N 51°25' E 003°44'0 0.0
2016-Jul-01 01:22N 51°25' E 003°44'0 0.0
2016-Jul-01 00:28N 51°25' E 003°44'0 0.0
2016-Jun-30 23:28N 51°25' E 003°44'0 0.0
2016-Jun-30 22:28N 51°25' E 003°44'0 0.0
2016-Jun-30 21:28N 51°25' E 003°44'0 0.0
2016-Jun-30 20:28N 51°25' E 003°44'0 0.0
2016-Jun-30 19:31N 51°25' E 003°44'0 0.0
2016-Jun-30 18:31N 51°25' E 003°44'0 0.0
2016-Jun-30 17:28N 51°25' E 003°44'0 0.0
2016-Jun-30 16:31N 51°25' E 003°44'0 0.0
2016-Jun-30 15:28N 51°25' E 003°44'0 0.0
2016-Jun-30 14:31N 51°25' E 003°44'0 0.0
2016-Jun-30 13:31N 51°25' E 003°44'0 0.0
2016-Jun-30 12:22N 51°25' E 003°44'0 0.0
2016-Jun-30 11:28N 51°25' E 003°44'0 0.0
2016-Jun-30 10:31N 51°25' E 003°44'0 0.0
2016-Jun-30 09:19N 51°25' E 003°44'0 0.0
2016-Jun-30 08:31N 51°25' E 003°44'0 0.0
2016-Jun-30 07:31N 51°25' E 003°44'0 0.0
2016-Jun-30 06:28N 51°25' E 003°44'0 0.0
2016-Jun-30 05:28N 51°25' E 003°44'0 0.0
2016-Jun-30 04:28N 51°25' E 003°44'0 0.0
2016-Jun-30 03:31N 51°25' E 003°44'0 0.0
2016-Jun-30 02:31N 51°25' E 003°44'0 0.0
2016-Jun-30 01:28N 51°25' E 003°44'0 0.0
2016-Jun-30 00:28N 51°25' E 003°44'0 0.0
2016-Jun-29 23:34N 51°25' E 003°44'0 0.0
2016-Jun-29 22:28N 51°25' E 003°44'0 0.0
2016-Jun-29 21:28N 51°25' E 003°44'0 0.0
2016-Jun-29 20:31N 51°25' E 003°44'0 0.0
2016-Jun-29 19:28N 51°25' E 003°44'0 0.0
2016-Jun-29 18:34N 51°25' E 003°44'0 0.0
2016-Jun-29 17:28N 51°25' E 003°44'0 0.0
2016-Jun-29 16:33N 51°25' E 003°44'6 6.4
2016-Jun-29 15:33N 51°26' E 003°34'1312.7
2016-Jun-29 14:33N 51°25' E 003°13'1211.9
2016-Jun-29 13:33N 51°25' E 002°54'9 9.1
2016-Jun-29 12:33N 51°23' E 002°40'2 1.4
2016-Jun-29 11:09N 51°25' E 002°39'0 0.0
2016-Jun-29 09:21N 51°25' E 002°39'0 0.0
2016-Jun-29 08:30N 51°25' E 002°39'0 0.0
2016-Jun-29 07:21N 51°25' E 002°39'0 0.0
2016-Jun-29 03:15N 51°25' E 002°39'0 0.0
2016-Jun-29 02:27N 51°25' E 002°39'0 0.0
2016-Jun-28 23:06N 51°25' E 002°39'0 0.0
2016-Jun-28 22:24N 51°25' E 002°39'3 1.0
2016-Jun-28 19:27N 51°24' E 002°35'1213.6
2016-Jun-28 18:33N 51°19' E 002°17'1211.7
2016-Jun-28 17:33N 51°23' E 001°60'1212.3
2016-Jun-28 16:34N 51°34' E 002°08'1414.2
2016-Jun-28 15:33N 51°45' E 002°23'1514.9
2016-Jun-28 14:31N 51°56' E 002°41'1414.2
2016-Jun-28 13:33N 52°03' E 003°00'19 1.4
2016-Jun-28 00:18N 51°53' E 003°27'0 0.1
2016-Jun-27 23:18N 51°53' E 003°27'  
2016-Jun-25 07:24N 51°53' E 003°27'0 0.0
2016-Jun-25 03:24N 51°53' E 003°28'0 0.1
2016-Jun-25 02:30N 51°53' E 003°28'0 0.1
2016-Jun-25 01:24N 51°53' E 003°27'4 5.0
2016-Jun-25 00:33N 51°55' E 003°21'2411.8
2016-Jun-24 22:29N 51°49' E 002°43'1212.6
2016-Jun-24 21:33N 52°00' E 002°40'5012.1
2016-Jun-24 17:28N 52°46' E 003°10'1211.5
2016-Jun-24 16:25N 52°57' E 003°17'1512.4
2016-Jun-24 15:14N 53°11' E 003°24'1013.2
2016-Jun-24 14:29N 53°21' E 003°29'1313.5
2016-Jun-24 13:31N 53°34' E 003°35'1313.1
2016-Jun-24 12:31N 53°45' E 003°45'1413.1
2016-Jun-24 11:25N 53°54' E 004°04'1212.8
2016-Jun-24 10:30N 54°01' E 004°20'23112.2
2016-Jun-23 15:33N 57°52' E 004°46'1313.1
2016-Jun-23 14:33N 58°04' E 004°37'22912.4
2016-Jun-22 20:08N 61°52' E 004°02'712.7
2016-Jun-22 19:33N 61°60' E 004°02'1312.9
2016-Jun-22 18:33N 62°12' E 004°02'  
Track history (hours):
 
Tides and Currents Weather Stations Pressure Air Temp Water Temp Dewpoint Dewpoint Depression Visibility Wind Speed Wind Dir Waves Ship Positions

Edith Kirk

Last reported at 2016-Jul-01 14:28 UTC. Time now 2016-Jul-01 15:24 UTC.
Position N 51°25' E 003°44'.

Length 183 m; draft 10.3 m.

Type: Ship. MMSI: 235081745.

Date/timePositionNaut miles runAvg speedWind from/ knotsBaromVisibWave heightAir tempDewpointWater temp
2016-Jul-01 14:28N 51°25' E 003°44'0 0.0
2016-Jul-01 13:28N 51°25' E 003°44'0 0.0
2016-Jul-01 12:28N 51°25' E 003°44'0 0.0
2016-Jul-01 11:31N 51°25' E 003°44'0 0.0
2016-Jul-01 10:31N 51°25' E 003°44'0 0.0
2016-Jul-01 09:28N 51°25' E 003°44'0 0.0
2016-Jul-01 08:31N 51°25' E 003°44'0 0.0
2016-Jul-01 07:31N 51°25' E 003°44'0 0.0
2016-Jul-01 06:28N 51°25' E 003°44'0 0.0
2016-Jul-01 05:28N 51°25' E 003°44'0 0.0
2016-Jul-01 04:28N 51°25' E 003°44'0 0.0
2016-Jul-01 03:28N 51°25' E 003°44'0 0.0
2016-Jul-01 02:31N 51°25' E 003°44'0 0.0
2016-Jul-01 01:22N 51°25' E 003°44'0 0.0
2016-Jul-01 00:28N 51°25' E 003°44'0 0.0
2016-Jun-30 23:28N 51°25' E 003°44'0 0.0
2016-Jun-30 22:28N 51°25' E 003°44'0 0.0
2016-Jun-30 21:28N 51°25' E 003°44'0 0.0
2016-Jun-30 20:28N 51°25' E 003°44'0 0.0
2016-Jun-30 19:31N 51°25' E 003°44'0 0.0
2016-Jun-30 18:31N 51°25' E 003°44'0 0.0
2016-Jun-30 17:28N 51°25' E 003°44'0 0.0
2016-Jun-30 16:31N 51°25' E 003°44'0 0.0
2016-Jun-30 15:28N 51°25' E 003°44'0 0.0
2016-Jun-30 14:31N 51°25' E 003°44'0 0.0
2016-Jun-30 13:31N 51°25' E 003°44'0 0.0
2016-Jun-30 12:22N 51°25' E 003°44'0 0.0
2016-Jun-30 11:28N 51°25' E 003°44'0 0.0
2016-Jun-30 10:31N 51°25' E 003°44'0 0.0
2016-Jun-30 09:19N 51°25' E 003°44'0 0.0
2016-Jun-30 08:31N 51°25' E 003°44'0 0.0
2016-Jun-30 07:31N 51°25' E 003°44'0 0.0
2016-Jun-30 06:28N 51°25' E 003°44'0 0.0
2016-Jun-30 05:28N 51°25' E 003°44'0 0.0
2016-Jun-30 04:28N 51°25' E 003°44'0 0.0
2016-Jun-30 03:31N 51°25' E 003°44'0 0.0
2016-Jun-30 02:31N 51°25' E 003°44'0 0.0
2016-Jun-30 01:28N 51°25' E 003°44'0 0.0
2016-Jun-30 00:28N 51°25' E 003°44'0 0.0
2016-Jun-29 23:34N 51°25' E 003°44'0 0.0
2016-Jun-29 22:28N 51°25' E 003°44'0 0.0
2016-Jun-29 21:28N 51°25' E 003°44'0 0.0
2016-Jun-29 20:31N 51°25' E 003°44'0 0.0
2016-Jun-29 19:28N 51°25' E 003°44'0 0.0
2016-Jun-29 18:34N 51°25' E 003°44'0 0.0
2016-Jun-29 17:28N 51°25' E 003°44'0 0.0
2016-Jun-29 16:33N 51°25' E 003°44'6 6.4
2016-Jun-29 15:33N 51°26' E 003°34'1312.7
2016-Jun-29 14:33N 51°25' E 003°13'1211.9
2016-Jun-29 13:33N 51°25' E 002°54'9 9.1
2016-Jun-29 12:33N 51°23' E 002°40'2 1.4
2016-Jun-29 11:09N 51°25' E 002°39'0 0.0
2016-Jun-29 09:21N 51°25' E 002°39'0 0.0
2016-Jun-29 08:30N 51°25' E 002°39'0 0.0
2016-Jun-29 07:21N 51°25' E 002°39'0 0.0
2016-Jun-29 03:15N 51°25' E 002°39'0 0.0
2016-Jun-29 02:27N 51°25' E 002°39'0 0.0
2016-Jun-28 23:06N 51°25' E 002°39'0 0.0
2016-Jun-28 22:24N 51°25' E 002°39'3 1.0
2016-Jun-28 19:27N 51°24' E 002°35'1213.6
2016-Jun-28 18:33N 51°19' E 002°17'1211.7
2016-Jun-28 17:33N 51°23' E 001°60'1212.3
2016-Jun-28 16:34N 51°34' E 002°08'1414.2
2016-Jun-28 15:33N 51°45' E 002°23'1514.9
2016-Jun-28 14:31N 51°56' E 002°41'1414.2
2016-Jun-28 13:33N 52°03' E 003°00'19 1.4
2016-Jun-28 00:18N 51°53' E 003°27'0 0.1
2016-Jun-27 23:18N 51°53' E 003°27'  
2016-Jun-25 07:24N 51°53' E 003°27'0 0.0
2016-Jun-25 03:24N 51°53' E 003°28'0 0.1
2016-Jun-25 02:30N 51°53' E 003°28'0 0.1
2016-Jun-25 01:24N 51°53' E 003°27'4 5.0
2016-Jun-25 00:33N 51°55' E 003°21'2411.8
2016-Jun-24 22:29N 51°49' E 002°43'1212.6
2016-Jun-24 21:33N 52°00' E 002°40'5012.1
2016-Jun-24 17:28N 52°46' E 003°10'1211.5
2016-Jun-24 16:25N 52°57' E 003°17'1512.4
2016-Jun-24 15:14N 53°11' E 003°24'1013.2
2016-Jun-24 14:29N 53°21' E 003°29'1313.5
2016-Jun-24 13:31N 53°34' E 003°35'1313.1
2016-Jun-24 12:31N 53°45' E 003°45'1413.1
2016-Jun-24 11:25N 53°54' E 004°04'1212.8
2016-Jun-24 10:30N 54°01' E 004°20'23112.2
2016-Jun-23 15:33N 57°52' E 004°46'1313.1
2016-Jun-23 14:33N 58°04' E 004°37'22912.4
2016-Jun-22 20:08N 61°52' E 004°02'712.7
2016-Jun-22 19:33N 61°60' E 004°02'1312.9
2016-Jun-22 18:33N 62°12' E 004°02'  

Dump ship's entire track history